Flight Track Log - Related Links

Times and Time Zones

All times are in EDT time to prevent confusion due to time zone crossing. See the N549JB flight status page for this flight to view local times or setup timezone preferences in your user account.

Time Position Orientation Groundspeed Altitude Reporting Facility
EDT Latitude Longitude Course Direction KTS MPH feet Rate Location/Type
Mon 02:44:25 PM 39.2333 -77.1500 38° Northeast 138 159 2,500  Level Potomac TRACON
Mon 02:45:26 PM 39.2333 -77.1167 90° East 138 159 3,400 893 Climbing Potomac TRACON
Mon 02:46:26 PM 39.2500 -77.0667 67° East 139 160 4,300 800 Climbing Potomac TRACON
Mon 02:47:26 PM 39.2500 -77.0167 90° East 146 168 5,000 350 Climbing Potomac TRACON
Mon 02:48:26 PM 39.2667 -76.9500 72° East 163 188 5,000  Level Potomac TRACON
Mon 02:49:27 PM 39.2833 -76.9000 67° East 161 185 5,000 50 Level Potomac TRACON
Mon 02:50:27 PM 39.3000 -76.8500 67° East 164 189 5,100  Climbing Potomac TRACON
Mon 02:51:33 PM 39.3000 -76.7833 90° East 179 206 5,000  Descending Potomac TRACON
Mon 02:52:27 PM 39.2833 -76.7333 113° Southeast 176 203 5,100  Climbing Potomac TRACON
Mon 02:53:27 PM 39.2500 -76.6833 131° Southeast 184 212 5,000 -50 Descending Potomac TRACON
Mon 02:54:27 PM 39.2167 -76.6333 131° Southeast 185 213 5,000  Level Potomac TRACON
Mon 02:55:27 PM 39.1833 -76.6000 142° Southeast 183 211 5,000  Level Potomac TRACON
Mon 02:56:28 PM 39.1500 -76.5500 131° Southeast 179 206 5,000  Level Potomac TRACON
Mon 02:57:28 PM 39.1167 -76.5000 131° Southeast 179 206 5,000  Level Potomac TRACON
Mon 02:58:28 PM 39.0833 -76.4500 131° Southeast 180 207 5,000  Level Potomac TRACON
Mon 02:59:28 PM 39.0500 -76.4000 131° Southeast 185 213 5,000  Level Potomac TRACON
Mon 03:00:28 PM 39.0167 -76.3667 142° Southeast 183 211 5,000  Level Potomac TRACON
Mon 03:01:28 PM 38.9667 -76.3167 142° Southeast 186 214 5,000  Level Potomac TRACON
Mon 03:02:57 PM 38.9242 -76.2481 129° Southeast 183 211 5,000  Level Washington Center
Mon 03:03:51 PM 38.8908 -76.2050 135° Southeast 185 213 5,000  Level Washington Center
Mon 03:04:58 PM 38.8517 -76.1567 136° Southeast 185 213 5,000  Level Washington Center
Mon 03:05:52 PM 38.8206 -76.1139 133° Southeast 185 213 5,000  Level Washington Center
Mon 03:07:12 PM 38.7706 -76.0522 136° Southeast 182 209 5,000  Level Washington Center
Mon 03:08:19 PM 38.7292 -76.0014 136° Southeast 184 212 5,000  Level Washington Center
Mon 03:09:19 PM 38.6939 -75.9561 135° Southeast 184 212 5,000 -263 Level Washington Center
Mon 03:10:13 PM 38.6669 -75.9056 124° Southeast 187 215 4,500 -522 Descending Washington Center
Mon 03:11:14 PM 38.6442 -75.8469 116° Southeast 194 223 4,000 -259 Descending Washington Center
Mon 03:12:09 PM 38.6233 -75.7964 118° Southeast 174 200 4,000 49 Level Washington Center
Mon 03:13:16 PM 38.5922 -75.7350 123° Southeast 174 200 4,100 45 Climbing Washington Center
Mon 03:14:23 PM 38.5672 -75.6767 119° Southeast 179 206 4,100 -209 Level Washington Center
Mon 03:15:11 PM 38.5442 -75.6342 125° Southeast 177 204 3,700 -495 Descending Washington Center
Mon 03:16:12 PM 38.5192 -75.5731 118° Southeast 193 222 3,200 -347 Descending Washington Center
Mon 03:17:12 PM 38.4922 -75.5147 121° Southeast 186 214 3,000 -52 Descending Washington Center
Mon 03:18:07 PM 38.4692 -75.4672 122° Southeast 173 199 3,100 109 Climbing Washington Center
Mon 03:20:00 PM 38.4295 -75.3811 142° Southeast  Level Estimated

Login

Don't have an account? Register now (free) for customized features, flight alerts, and more!